createdAt,value
2019-06-27T00:00:28.444Z,79.71
2019-06-27T00:01:27.077Z,79.71
2019-06-27T00:02:25.612Z,79.47
2019-06-27T00:03:24.204Z,79.37
2019-06-27T00:04:23.182Z,79.27
2019-06-27T00:05:21.741Z,79.66
2019-06-27T00:06:20.301Z,79.37
2019-06-27T00:07:18.827Z,79.66
2019-06-27T00:08:17.376Z,79.47
2019-06-27T00:09:15.892Z,80.05
2019-06-27T00:10:14.768Z,79.96
2019-06-27T00:11:13.347Z,80.15
2019-06-27T00:12:11.894Z,79.57
2019-06-27T00:13:10.603Z,79.57
2019-06-27T00:14:09.153Z,79.57
2019-06-27T00:15:07.711Z,79.66
2019-06-27T00:16:06.249Z,79.57
2019-06-27T00:17:04.868Z,79.76
2019-06-27T00:18:03.422Z,79.57
2019-06-27T00:19:01.953Z,79.66
2019-06-27T00:20:00.499Z,79.57
2019-06-27T00:20:59.051Z,79.37
2019-06-27T00:21:57.561Z,79.57
2019-06-27T00:22:56.092Z,79.47
2019-06-27T00:23:54.630Z,80.02
2019-06-27T00:24:53.226Z,79.57
2019-06-27T00:25:51.728Z,79.57
2019-06-27T00:26:56.893Z,79.57
2019-06-27T00:27:49.128Z,79.66
2019-06-27T00:28:47.667Z,79.66
2019-06-27T00:29:46.316Z,79.53
2019-06-27T00:30:44.949Z,79.57
2019-06-27T00:31:43.478Z,79.57
2019-06-27T00:32:42.043Z,79.72
2019-06-27T00:33:40.685Z,79.33
2019-06-27T00:34:39.240Z,79.63
2019-06-27T00:35:37.740Z,79.53
2019-06-27T00:36:36.265Z,79.53
2019-06-27T00:37:34.801Z,79.72
2019-06-27T00:38:33.359Z,79.92
2019-06-27T00:39:31.918Z,79.72
2019-06-27T00:40:30.681Z,79.82
2019-06-27T00:41:29.225Z,79.43
2019-06-27T00:42:27.788Z,79.53
2019-06-27T00:43:26.358Z,79.53
2019-06-27T00:44:25.002Z,79.53
2019-06-27T00:45:23.564Z,79.43
2019-06-27T00:46:22.125Z,79.53
2019-06-27T00:47:20.763Z,79.33
2019-06-27T00:48:19.416Z,79.33
2019-06-27T00:49:17.951Z,79.43
2019-06-27T00:50:16.492Z,79.43
2019-06-27T00:51:15.053Z,79.33
2019-06-27T00:52:13.597Z,79.43
2019-06-27T00:53:12.123Z,79.24
2019-06-27T00:54:10.668Z,79.24
2019-06-27T00:55:09.238Z,79.33
2019-06-27T00:56:07.806Z,79.43
2019-06-27T00:57:13.788Z,79.72
2019-06-27T00:58:05.044Z,79.43
2019-06-27T00:59:03.639Z,79.53
2019-06-27T01:00:02.188Z,79.72
2019-06-27T01:01:00.903Z,79.04
2019-06-27T01:01:59.457Z,79.33
2019-06-27T01:02:58.095Z,79.72
2019-06-27T01:03:56.804Z,79.43
2019-06-27T01:04:55.350Z,79.53
2019-06-27T01:05:53.870Z,79.53
2019-06-27T01:06:52.426Z,79.92
2019-06-27T01:07:51.125Z,80.11
2019-06-27T01:08:49.704Z,79.72
2019-06-27T01:09:48.339Z,80.02
2019-06-27T01:10:47.028Z,79.92
2019-06-27T01:11:45.561Z,80.02
2019-06-27T01:12:44.116Z,79.82
2019-06-27T01:13:43.048Z,80.02
2019-06-27T01:14:41.620Z,79.53
2019-06-27T01:15:40.168Z,80.8
2019-06-27T01:16:38.831Z,80.6
2019-06-27T01:17:37.395Z,80.8
2019-06-27T01:18:35.928Z,80.85
2019-06-27T01:19:34.747Z,80.9
2019-06-27T01:20:33.323Z,80.51
2019-06-27T01:21:31.869Z,80.6
2019-06-27T01:22:30.405Z,80.51
2019-06-27T01:23:29.048Z,80.51
2019-06-27T01:24:27.600Z,80.51
2019-06-27T01:25:26.481Z,80.66
2019-06-27T01:26:25.079Z,80.46
2019-06-27T01:27:29.835Z,80.66
2019-06-27T01:28:22.160Z,80.27
2019-06-27T01:29:20.909Z,80.27
2019-06-27T01:30:19.454Z,80.36
2019-06-27T01:31:17.989Z,80.36
2019-06-27T01:33:25.833Z,80.76
2019-06-27T01:34:24.362Z,80.76
2019-06-27T01:35:22.947Z,81.34
2019-06-27T01:36:21.517Z,81.15
2019-06-27T01:37:20.051Z,81.63
2019-06-27T01:38:18.611Z,81.15
2019-06-27T01:39:17.165Z,81.24
2019-06-27T01:40:15.702Z,80.76
2019-06-27T01:41:14.514Z,80.82
2019-06-27T01:42:13.212Z,81.59
2019-06-27T01:43:11.764Z,81.1
2019-06-27T01:44:10.352Z,81.3
2019-06-27T01:45:09.025Z,80.62
2019-06-27T01:46:07.591Z,80.91
2019-06-27T01:47:06.108Z,80.52
2019-06-27T01:48:04.698Z,81.3
2019-06-27T01:49:03.236Z,81.3
2019-06-27T01:50:01.921Z,81.3
2019-06-27T01:51:00.348Z,81.88
2019-06-27T01:51:58.997Z,81.88
2019-06-27T01:52:57.527Z,81.3
2019-06-27T01:53:56.098Z,81.01
2019-06-27T01:54:54.778Z,81.3
2019-06-27T01:55:53.328Z,81.1
2019-06-27T01:56:51.857Z,81.59
2019-06-27T01:57:50.575Z,82.08
2019-06-27T01:58:49.245Z,81.79
2019-06-27T01:59:47.767Z,81.59
2019-06-27T02:00:46.306Z,81.59
2019-06-27T02:01:44.868Z,81.79
2019-06-27T02:02:43.437Z,81.69
2019-06-27T02:03:42.001Z,82.08
2019-06-27T02:04:40.549Z,82.08
2019-06-27T02:05:39.120Z,81.88
2019-06-27T02:06:37.661Z,82.18
2019-06-27T02:07:36.442Z,82.28
2019-06-27T02:08:34.984Z,82.23
2019-06-27T02:09:33.702Z,81.94
2019-06-27T02:10:32.045Z,82.14
2019-06-27T02:11:30.798Z,82.04
2019-06-27T02:12:29.316Z,81.94
2019-06-27T02:13:27.852Z,82.33
2019-06-27T02:14:26.421Z,82.23
2019-06-27T02:15:25.005Z,82.53
2019-06-27T02:16:23.526Z,82.53
2019-06-27T02:17:22.093Z,82.53
2019-06-27T02:18:20.709Z,82.43
2019-06-27T02:19:19.260Z,82.53
2019-06-27T02:20:17.801Z,82.43
2019-06-27T02:21:16.338Z,81.75
2019-06-27T02:22:14.869Z,82.62
2019-06-27T02:23:15.858Z,82.53
2019-06-27T02:24:11.956Z,82.72
2019-06-27T02:25:10.767Z,82.43
2019-06-27T02:26:09.316Z,82.62
2019-06-27T02:27:07.861Z,82.04
2019-06-27T02:28:06.713Z,81.75
2019-06-27T02:30:07.212Z,82.62
2019-06-27T02:31:05.739Z,82.72
2019-06-27T02:32:04.370Z,82.33
2019-06-27T02:33:03.037Z,82.72
2019-06-27T02:34:06.225Z,82.53
2019-06-27T02:35:00.209Z,82.72
2019-06-27T02:35:58.771Z,82.82
2019-06-27T02:36:57.494Z,82.87
2019-06-27T02:37:55.965Z,82.23
2019-06-27T02:38:54.540Z,82.39
2019-06-27T02:39:53.065Z,82.72
2019-06-27T02:40:51.615Z,82.39
2019-06-27T02:42:59.372Z,82.33
2019-06-27T02:43:57.900Z,82.87
2019-06-27T02:44:56.645Z,83.36
2019-06-27T02:45:55.188Z,82.78
2019-06-27T02:46:53.712Z,82.87
2019-06-27T02:47:52.287Z,82.97
2019-06-27T02:48:51.108Z,82.92
2019-06-27T02:49:50.439Z,83.07
2019-06-27T02:50:48.228Z,83.07
2019-06-27T02:51:46.852Z,83.26
2019-06-27T02:52:45.422Z,82.78
2019-06-27T02:53:43.984Z,82.82
2019-06-27T02:54:42.518Z,82.68
2019-06-27T02:55:41.058Z,83.07
2019-06-27T02:56:39.590Z,82.97
2019-06-27T02:57:38.136Z,83.46
2019-06-27T02:58:36.700Z,83.07
2019-06-27T02:59:35.216Z,82.58
2019-06-27T03:00:33.778Z,83.07
2019-06-27T03:01:32.339Z,82.58
2019-06-27T03:02:31.016Z,82.68
2019-06-27T03:05:13.078Z,83.26
2019-06-27T03:06:11.604Z,83.46
2019-06-27T03:07:10.329Z,82.97
2019-06-27T03:08:09.011Z,83.65
2019-06-27T03:09:07.533Z,83.85
2019-06-27T03:10:06.085Z,83.36
2019-06-27T03:11:04.625Z,82.97
2019-06-27T03:12:03.195Z,83.95
2019-06-27T03:13:01.780Z,83.56
2019-06-27T03:14:00.385Z,83.36
2019-06-27T03:14:59.035Z,83.26
2019-06-27T03:15:57.579Z,83.07
2019-06-27T03:16:56.131Z,83.85
2019-06-27T03:17:54.774Z,83.56
2019-06-27T03:18:53.341Z,83.46
2019-06-27T03:19:51.872Z,83.46
2019-06-27T03:20:50.437Z,83.65
2019-06-27T03:21:49.087Z,83.46
2019-06-27T03:22:47.654Z,83.75
2019-06-27T03:23:46.198Z,83.85
2019-06-27T03:24:44.748Z,83.46
2019-06-27T03:25:43.300Z,83.65
2019-06-27T03:26:41.845Z,84.05
2019-06-27T03:27:40.390Z,83.75
2019-06-27T03:28:51.496Z,83.85
2019-06-27T03:29:37.471Z,83.85
2019-06-27T03:30:36.009Z,84.05
2019-06-27T03:31:34.537Z,83.65
2019-06-27T03:32:33.089Z,83.75
2019-06-27T03:33:31.617Z,83.46
2019-06-27T03:34:30.240Z,83.36
2019-06-27T03:35:28.972Z,83.75
2019-06-27T03:36:27.524Z,83.26
2019-06-27T03:37:26.076Z,84.05
2019-06-27T03:38:24.882Z,83.89
2019-06-27T03:39:23.432Z,82.97
2019-06-27T03:40:21.956Z,82.78
2019-06-27T03:41:20.623Z,83.26
2019-06-27T03:42:19.092Z,83.46
2019-06-27T03:43:17.632Z,83.6
2019-06-27T03:44:16.170Z,83.31
2019-06-27T03:45:15.967Z,83.56
2019-06-27T03:46:13.275Z,83.4
2019-06-27T03:47:11.800Z,83.11
2019-06-27T03:48:10.333Z,83.5
2019-06-27T03:49:08.881Z,83.79
2019-06-27T03:50:07.450Z,82.87
2019-06-27T03:51:06.005Z,83.21
2019-06-27T03:52:04.829Z,83.11
2019-06-27T03:53:03.378Z,83.4
2019-06-27T03:54:01.970Z,83.79
2019-06-27T03:55:00.593Z,83.31
2019-06-27T03:55:59.202Z,83.21
2019-06-27T03:56:57.753Z,83.21
2019-06-27T03:57:56.294Z,83.4
2019-06-27T03:59:11.121Z,83.21
2019-06-27T03:59:53.608Z,82.72
2019-06-27T04:00:52.172Z,83.11
2019-06-27T04:01:50.958Z,82.62
2019-06-27T04:02:49.519Z,82.62
2019-06-27T04:03:48.067Z,82.62
2019-06-27T04:04:46.793Z,83.01
2019-06-27T04:05:45.407Z,82.92
2019-06-27T04:06:44.020Z,82.72
2019-06-27T04:07:42.569Z,82.86
2019-06-27T04:08:41.137Z,82.92
2019-06-27T04:09:39.687Z,82.47
2019-06-27T04:10:38.305Z,82.37
2019-06-27T04:11:37.037Z,81.98
2019-06-27T04:12:35.578Z,82.08
2019-06-27T04:13:34.124Z,82.57
2019-06-27T04:14:32.741Z,82.92
2019-06-27T04:15:31.345Z,83.11
2019-06-27T04:16:29.884Z,82.62
2019-06-27T04:17:28.538Z,83.21
2019-06-27T04:18:27.164Z,82.72
2019-06-27T04:19:25.729Z,82.62
2019-06-27T04:20:24.250Z,82.67
2019-06-27T04:21:22.815Z,82.82
2019-06-27T04:22:21.362Z,83.01
2019-06-27T04:23:19.913Z,82.62
2019-06-27T04:24:18.460Z,82.72
2019-06-27T04:25:17.019Z,82.72
2019-06-27T04:26:15.558Z,82.67
2019-06-27T04:27:14.121Z,82.72
2019-06-27T04:28:12.833Z,82.67
2019-06-27T04:29:27.894Z,83.06
2019-06-27T04:30:09.980Z,82.08
2019-06-27T04:31:08.717Z,82.67
2019-06-27T04:32:07.327Z,82.96
2019-06-27T04:33:05.873Z,82.86
2019-06-27T04:34:04.405Z,83.06
2019-06-27T04:35:03.012Z,82.28
2019-06-27T04:36:01.589Z,82.76
2019-06-27T04:37:00.156Z,82.67
2019-06-27T04:37:58.697Z,82.86
2019-06-27T04:38:57.227Z,82.08
2019-06-27T04:39:55.739Z,81.69
2019-06-27T04:40:54.290Z,82.57
2019-06-27T04:41:52.817Z,81.98
2019-06-27T04:42:51.528Z,81.79
2019-06-27T04:43:50.119Z,81.83
2019-06-27T04:44:48.641Z,81.63
2019-06-27T04:45:47.319Z,81.63
2019-06-27T04:46:45.917Z,81.24
2019-06-27T04:47:44.581Z,81.93
2019-06-27T04:48:43.246Z,80.66
2019-06-27T04:49:41.811Z,80.31
2019-06-27T04:50:40.357Z,79.82
2019-06-27T04:51:38.969Z,80.85
2019-06-27T04:52:37.536Z,79.82
2019-06-27T04:53:36.302Z,80.21
2019-06-27T04:54:35.072Z,81.69
2019-06-27T04:55:33.611Z,82.57
2019-06-27T04:56:32.161Z,82.28
2019-06-27T04:57:30.813Z,81.63
2019-06-27T04:58:29.413Z,81.05
2019-06-27T04:59:27.980Z,81.67
2019-06-27T05:00:26.563Z,80.51
2019-06-27T05:01:25.103Z,80.66
2019-06-27T05:02:23.638Z,81.24
2019-06-27T05:03:22.184Z,80.9
2019-06-27T05:04:20.726Z,80.76
2019-06-27T05:05:19.328Z,80.41
2019-06-27T05:06:17.901Z,80.7
2019-06-27T05:07:16.651Z,80.21
2019-06-27T05:08:15.265Z,80.31
2019-06-27T05:09:13.804Z,80.02
2019-06-27T05:10:12.389Z,79.47
2019-06-27T05:11:11.151Z,79.08
2019-06-27T05:12:09.820Z,79.17
2019-06-27T05:13:08.702Z,79.27
2019-06-27T05:15:42.809Z,79.47
2019-06-27T05:16:41.364Z,79.86
2019-06-27T05:17:39.900Z,79.47
2019-06-27T05:18:38.503Z,78.89
2019-06-27T05:19:37.147Z,82.77
2019-06-27T05:20:35.694Z,81.29
2019-06-27T05:21:34.254Z,81.09
2019-06-27T05:22:32.902Z,82.85
2019-06-27T05:23:31.511Z,82.52
2019-06-27T05:24:30.033Z,82.77
2019-06-27T05:25:29.803Z,81.21
2019-06-27T05:26:27.451Z,83.7
2019-06-27T05:27:26.018Z,84.43
2019-06-27T05:28:24.679Z,84.78
2019-06-27T05:29:23.276Z,82.63
2019-06-27T05:30:21.934Z,83.06
2019-06-27T05:31:20.564Z,85.6
2019-06-27T05:32:19.230Z,88.13
2019-06-27T05:33:17.954Z,82.63
2019-06-27T05:34:16.623Z,86.73
2019-06-27T05:35:15.237Z,83.02
2019-06-27T05:36:13.789Z,83.61
2019-06-27T05:37:12.523Z,82.69
2019-06-27T05:38:11.062Z,88.93
2019-06-27T05:39:09.602Z,86.69
2019-06-27T05:40:08.121Z,83.18
2019-06-27T05:41:06.750Z,84.34
2019-06-27T05:42:05.336Z,83.95
2019-06-27T05:43:04.143Z,82.79
2019-06-27T05:44:02.734Z,82.98
2019-06-27T05:45:01.454Z,84.68
2019-06-27T05:46:00.035Z,82.4
2019-06-27T05:46:58.613Z,80.93
2019-06-27T05:47:57.292Z,80.8
2019-06-27T05:48:55.827Z,82.84
2019-06-27T05:49:54.419Z,82.94
2019-06-27T05:50:52.996Z,80.8
2019-06-27T05:51:51.691Z,84.4
2019-06-27T05:52:50.354Z,85.67
2019-06-27T05:53:49.195Z,81.96
2019-06-27T05:54:47.810Z,82.1
2019-06-27T05:55:46.502Z,83.66
2019-06-27T05:56:44.970Z,80.8
2019-06-27T05:57:43.551Z,82.5
2019-06-27T05:58:42.192Z,79.69
2019-06-27T05:59:40.584Z,79.59
2019-06-27T06:00:39.163Z,82.17
2019-06-27T06:01:37.862Z,84.36
2019-06-27T06:04:12.804Z,80.86
2019-06-27T06:05:11.449Z,81.97
2019-06-27T06:06:10.002Z,79.59
2019-06-27T06:07:08.612Z,79.66
2019-06-27T06:08:07.307Z,79.82
2019-06-27T06:09:06.775Z,79.96
2019-06-27T06:10:04.372Z,78.1
2019-06-27T06:11:03.034Z,80.35
2019-06-27T06:12:01.577Z,81.37
2019-06-27T06:13:00.091Z,83.85
2019-06-27T06:13:58.767Z,80.82
2019-06-27T06:14:57.288Z,82.52
2019-06-27T06:15:55.820Z,78.51
2019-06-27T06:16:54.392Z,76.06
2019-06-27T06:17:52.962Z,76.06
2019-06-27T06:18:51.488Z,78.41
2019-06-27T06:19:50.022Z,74.88
2019-06-27T06:20:48.834Z,74.65
2019-06-27T06:21:47.387Z,79.39
2019-06-27T06:22:45.921Z,84.97
2019-06-27T06:23:44.729Z,82.62
2019-06-27T06:24:43.386Z,79.88
2019-06-27T06:25:41.953Z,82.37
2019-06-27T06:26:40.506Z,78.41
2019-06-27T06:27:39.085Z,79.39
2019-06-27T06:28:37.634Z,82.37
2019-06-27T06:29:36.177Z,77.47
2019-06-27T06:30:44.167Z,81.29
2019-06-27T06:31:33.606Z,83.94
2019-06-27T06:32:32.240Z,80.21
2019-06-27T06:33:30.883Z,75.22
2019-06-27T06:34:29.533Z,74.79
2019-06-27T06:35:28.168Z,81.29
2019-06-27T06:36:26.662Z,76.59
2019-06-27T06:37:25.200Z,75.22
2019-06-27T06:38:23.746Z,76.98
2019-06-27T06:39:22.372Z,78.61
2019-06-27T06:40:21.189Z,79.33
2019-06-27T06:41:19.698Z,75.08
2019-06-27T06:42:18.231Z,74.88
2019-06-27T06:43:16.798Z,73.38
2019-06-27T06:44:15.371Z,77.49
2019-06-27T06:45:13.928Z,77.04
2019-06-27T06:46:12.571Z,75.38
2019-06-27T06:47:11.220Z,74.01
2019-06-27T06:48:09.795Z,75.67
2019-06-27T06:49:08.409Z,74.01
2019-06-27T06:50:06.939Z,75.18
2019-06-27T06:51:05.470Z,80.07
2019-06-27T06:52:04.034Z,77.76
2019-06-27T06:53:02.544Z,76.49
2019-06-27T06:54:01.078Z,74.14
2019-06-27T06:54:59.628Z,75.32
2019-06-27T06:55:58.191Z,77.57
2019-06-27T06:56:56.838Z,77.17
2019-06-27T06:57:55.422Z,75.18
2019-06-27T06:58:53.957Z,74.95
2019-06-27T06:59:52.608Z,74.55
2019-06-27T07:01:00.661Z,72.99
2019-06-27T07:01:49.782Z,76.45
2019-06-27T07:02:48.357Z,77.43
2019-06-27T07:03:47.136Z,73.38
2019-06-27T07:04:45.694Z,74.2
2019-06-27T07:05:44.213Z,77.37
2019-06-27T07:06:42.780Z,78.09
2019-06-27T07:07:41.329Z,73.94
2019-06-27T07:08:39.885Z,73.16
2019-06-27T07:09:38.393Z,77.27
2019-06-27T07:10:36.972Z,75.18
2019-06-27T07:11:35.460Z,85.3
2019-06-27T07:12:34.012Z,76
2019-06-27T07:13:32.538Z,84.33
2019-06-27T07:14:31.282Z,79.53
2019-06-27T07:15:29.867Z,80.86
2019-06-27T07:16:30.377Z,83.7
2019-06-27T07:17:29.027Z,80.37
2019-06-27T07:18:27.605Z,83.6
2019-06-27T07:19:26.147Z,83.7
2019-06-27T07:20:24.715Z,76.55
2019-06-27T07:21:23.377Z,73.55
2019-06-27T07:22:21.916Z,74.14
2019-06-27T07:23:20.629Z,71.5
2019-06-27T07:24:19.001Z,74.24
2019-06-27T07:25:17.581Z,78.94
2019-06-27T07:26:16.091Z,78.35
2019-06-27T07:27:14.593Z,74.53
2019-06-27T07:28:13.140Z,75.42
2019-06-27T07:29:11.679Z,77.51
2019-06-27T07:30:10.254Z,76.62
2019-06-27T07:31:17.607Z,77.08
2019-06-27T07:32:07.463Z,76.14
2019-06-27T07:33:05.987Z,73.94
2019-06-27T07:34:04.577Z,72.57
2019-06-27T07:35:03.314Z,72.38
2019-06-27T07:36:01.832Z,76.98
2019-06-27T07:37:00.444Z,76
2019-06-27T07:37:59.133Z,75.71
2019-06-27T07:38:57.698Z,75.71
2019-06-27T07:39:56.227Z,73.52
2019-06-27T07:40:54.769Z,78.64
2019-06-27T07:41:53.315Z,81.49
2019-06-27T07:42:51.918Z,77.47
2019-06-27T07:43:50.451Z,80.31
2019-06-27T07:44:49.093Z,74.88
2019-06-27T07:45:47.635Z,72.47
2019-06-27T07:46:46.222Z,78.06
2019-06-27T07:47:44.809Z,74.04
2019-06-27T07:48:43.438Z,79.23
2019-06-27T07:49:41.958Z,77.12
2019-06-27T07:50:40.605Z,79.08
2019-06-27T07:51:39.201Z,78.58
2019-06-27T07:52:37.741Z,81.62
2019-06-27T07:53:36.292Z,81.33
2019-06-27T07:54:34.946Z,80.74
2019-06-27T07:55:33.497Z,75.45
2019-06-27T07:56:32.039Z,80.31
2019-06-27T07:57:30.625Z,79.63
2019-06-27T07:58:29.266Z,80.7
2019-06-27T07:59:27.812Z,76
2019-06-27T08:00:26.366Z,74.82
2019-06-27T08:01:34.352Z,72.18
2019-06-27T08:02:23.586Z,75.94
2019-06-27T08:03:22.130Z,74.73
2019-06-27T08:04:20.855Z,76
2019-06-27T08:05:19.418Z,74.86
2019-06-27T08:06:17.986Z,78.49
2019-06-27T08:07:16.565Z,76.82
2019-06-27T08:08:15.186Z,74.53
2019-06-27T08:09:13.723Z,78.25
2019-06-27T08:10:12.263Z,78.45
2019-06-27T08:11:10.804Z,74.49
2019-06-27T08:12:09.335Z,79.92
2019-06-27T08:13:07.953Z,74.63
2019-06-27T08:14:06.735Z,79.63
2019-06-27T08:15:05.494Z,78.41
2019-06-27T08:17:13.498Z,78.64
2019-06-27T08:18:12.058Z,78.64
2019-06-27T08:19:10.674Z,75.67
2019-06-27T08:20:09.213Z,75.81
2019-06-27T08:21:07.757Z,79.33
2019-06-27T08:23:47.877Z,79.72
2019-06-27T08:24:46.611Z,80.9
2019-06-27T08:25:45.384Z,75.87
2019-06-27T08:26:43.915Z,79.49
2019-06-27T08:27:42.542Z,80.86
2019-06-27T08:28:41.180Z,79.82
2019-06-27T08:29:39.741Z,75.18
2019-06-27T08:30:38.307Z,83.54
2019-06-27T08:32:54.166Z,82.27
2019-06-27T08:33:52.811Z,83.54
2019-06-27T08:34:51.394Z,83.15
2019-06-27T08:35:49.923Z,82.46
2019-06-27T08:36:48.477Z,78.9
2019-06-27T08:39:03.364Z,76.06
2019-06-27T08:40:01.894Z,77.29
2019-06-27T08:41:00.403Z,76.12
2019-06-27T08:41:58.985Z,78.38
2019-06-27T08:42:57.519Z,81.11
2019-06-27T08:43:56.063Z,79.58
2019-06-27T08:44:54.608Z,82.03
2019-06-27T08:45:53.166Z,83.11
2019-06-27T08:46:51.704Z,81.11
2019-06-27T08:47:50.238Z,76.51
2019-06-27T08:48:49.070Z,80.04
2019-06-27T08:49:47.640Z,75.4
2019-06-27T08:50:46.186Z,79.74
2019-06-27T08:51:44.967Z,82.72
2019-06-27T08:52:43.665Z,83.21
2019-06-27T08:53:42.265Z,86.24
2019-06-27T08:54:40.691Z,84.97
2019-06-27T08:55:39.243Z,76.65
2019-06-27T08:56:37.874Z,80.07
2019-06-27T08:57:36.654Z,81.64
2019-06-27T08:58:35.430Z,83.99
2019-06-27T08:59:34.058Z,80.86
2019-06-27T09:00:32.546Z,80.62
2019-06-27T09:01:31.283Z,82.48
2019-06-27T09:02:29.780Z,84.34
2019-06-27T09:03:28.350Z,81.3
2019-06-27T09:04:26.991Z,79.25
2019-06-27T09:05:25.643Z,82.48
2019-06-27T09:06:24.119Z,83.46
2019-06-27T09:07:23.042Z,79.64
2019-06-27T09:08:21.633Z,77.75
2019-06-27T09:09:20.372Z,77.39
2019-06-27T09:10:18.894Z,77.59
2019-06-27T09:11:17.462Z,78.28
2019-06-27T09:12:16.064Z,78.08
2019-06-27T09:13:14.551Z,75.83
2019-06-27T09:14:13.097Z,79.61
2019-06-27T09:15:11.652Z,81.85
2019-06-27T09:16:10.247Z,82.68
2019-06-27T09:17:09.037Z,81.21
2019-06-27T09:18:07.708Z,87.37
2019-06-27T09:19:06.315Z,88.55
2019-06-27T09:20:04.942Z,84.77
2019-06-27T09:21:03.616Z,78.17
2019-06-27T09:22:02.099Z,78.28
2019-06-27T09:23:00.632Z,87.18
2019-06-27T09:23:59.203Z,86.24
2019-06-27T09:24:57.814Z,91.92
2019-06-27T09:25:56.380Z,85.56
2019-06-27T09:26:55.148Z,84.38
2019-06-27T09:27:53.734Z,85.36
2019-06-27T09:28:52.265Z,87.65
2019-06-27T09:29:51.051Z,88.44
2019-06-27T09:30:49.867Z,82.52
2019-06-27T09:31:48.208Z,81.25
2019-06-27T09:32:46.780Z,87.02
2019-06-27T09:33:45.421Z,83.7
2019-06-27T09:34:44.208Z,80.86
2019-06-27T09:35:42.812Z,81.9
2019-06-27T09:36:41.416Z,82.29
2019-06-27T09:37:39.980Z,82.48
2019-06-27T09:38:38.516Z,81.01
2019-06-27T09:39:37.168Z,83.26
2019-06-27T09:40:35.742Z,80.13
2019-06-27T09:41:34.235Z,80.52
2019-06-27T09:42:32.925Z,80.62
2019-06-27T09:43:31.524Z,80.72
2019-06-27T09:44:29.990Z,75.34
2019-06-27T09:45:28.483Z,75.15
2019-06-27T09:46:27.014Z,74.65
2019-06-27T09:47:25.511Z,77.69
2019-06-27T09:48:24.098Z,81.99
2019-06-27T09:49:22.657Z,81.9
2019-06-27T09:50:21.686Z,81.21
2019-06-27T09:51:19.811Z,78.08
2019-06-27T09:52:18.368Z,78.28
2019-06-27T09:53:17.123Z,77.29
2019-06-27T09:54:15.694Z,77.39
2019-06-27T09:55:14.243Z,80.72
2019-06-27T09:56:12.967Z,83.36
2019-06-27T09:57:11.667Z,83.07
2019-06-27T09:58:10.281Z,82.09
2019-06-27T09:59:08.874Z,76.71
2019-06-27T10:00:07.415Z,78.28
2019-06-27T10:01:06.382Z,82.39
2019-06-27T10:02:04.583Z,82.19
2019-06-27T10:03:03.240Z,80.91
2019-06-27T10:04:01.853Z,81.01
2019-06-27T10:05:00.346Z,78.67
2019-06-27T10:05:59.168Z,77.39
2019-06-27T10:06:57.959Z,80.82
2019-06-27T10:07:56.578Z,81.11
2019-06-27T10:08:55.041Z,77.98
2019-06-27T10:09:53.706Z,75.44
2019-06-27T10:10:52.164Z,75.83
2019-06-27T10:11:53.254Z,76.22
2019-06-27T10:12:49.586Z,77.69
2019-06-27T10:13:48.042Z,76.71
2019-06-27T10:14:46.692Z,75.83
2019-06-27T10:15:45.200Z,75.44
2019-06-27T10:16:43.740Z,75.57
2019-06-27T10:17:42.299Z,74.98
2019-06-27T10:18:40.919Z,75.18
2019-06-27T10:19:39.562Z,73.22
2019-06-27T10:20:38.083Z,73.32
2019-06-27T10:21:36.635Z,73.42
2019-06-27T10:22:35.203Z,72.53
2019-06-27T10:23:33.823Z,72.24
2019-06-27T10:24:32.312Z,73.22
2019-06-27T10:25:31.107Z,73.19
2019-06-27T10:26:29.699Z,72.41
2019-06-27T10:27:28.227Z,72.8
2019-06-27T10:28:26.902Z,72.31
2019-06-27T10:29:25.585Z,72.14
2019-06-27T10:30:24.144Z,72.34
2019-06-27T10:31:22.675Z,71.52
2019-06-27T10:32:21.285Z,71.66
2019-06-27T10:33:19.798Z,71.66
2019-06-27T10:34:18.472Z,71.95
2019-06-27T10:35:16.897Z,72.34
2019-06-27T10:36:15.419Z,72.05
2019-06-27T10:37:13.949Z,71.26
2019-06-27T10:38:12.851Z,70.58
2019-06-27T10:39:11.543Z,71.46
2019-06-27T10:40:10.074Z,70.64
2019-06-27T10:41:08.760Z,71.36
2019-06-27T10:43:08.457Z,71.66
2019-06-27T10:44:07.230Z,71.26
2019-06-27T10:45:05.847Z,71.66
2019-06-27T10:46:05.326Z,71.36
2019-06-27T10:47:03.862Z,71.52
2019-06-27T10:48:02.468Z,71.75
2019-06-27T10:49:01.052Z,70.78
2019-06-27T10:49:59.601Z,70.58
2019-06-27T10:50:58.228Z,70.64
2019-06-27T10:51:56.996Z,71.42
2019-06-27T10:52:55.745Z,71.23
2019-06-27T10:53:54.241Z,71.91
2019-06-27T10:54:52.869Z,70.45
2019-06-27T10:55:51.537Z,70.84
2019-06-27T10:56:50.066Z,70.64
2019-06-27T10:57:48.609Z,70.74
2019-06-27T10:58:47.156Z,70.39
2019-06-27T10:59:45.751Z,70.39
2019-06-27T11:00:44.269Z,70.58
2019-06-27T11:01:42.818Z,70.29
2019-06-27T11:02:41.360Z,69.7
2019-06-27T11:03:39.877Z,69.37
2019-06-27T11:04:38.390Z,69.57
2019-06-27T11:05:37.029Z,69.76
2019-06-27T11:10:47.147Z,68.91
2019-06-27T11:14:35.104Z,68.1
2019-06-27T11:17:19.386Z,67.41
2019-06-27T11:18:41.427Z,67.51
2019-06-27T11:19:52.180Z,68.29
2019-06-27T11:20:52.230Z,68.13
2019-06-27T11:22:57.313Z,67.32
2019-06-27T11:23:56.937Z,66.93
2019-06-27T11:31:07.872Z,66.93
2019-06-27T11:32:05.386Z,67.41
2019-06-27T11:33:05.868Z,67.8
2019-06-27T11:34:14.392Z,67.41
2019-06-27T11:37:02.996Z,66.14
2019-06-27T11:40:37.111Z,65.98
2019-06-27T11:41:34.595Z,65.06
2019-06-27T11:42:39.607Z,65.36
2019-06-27T11:43:49.237Z,65.16
2019-06-27T11:44:48.365Z,65.75
2019-06-27T11:45:48.609Z,65.36
2019-06-27T11:46:49.107Z,64.67
2019-06-27T11:47:47.707Z,64.67
2019-06-27T11:48:51.140Z,64.28
2019-06-27T11:51:08.223Z,64.18
2019-06-27T11:52:12.177Z,63.82
2019-06-27T11:53:11.564Z,63.6
2019-06-27T11:54:10.098Z,63.7
2019-06-27T11:55:08.653Z,63.63
2019-06-27T11:56:07.329Z,63.21
2019-06-27T11:57:05.871Z,63.31
2019-06-27T11:58:04.380Z,63.6
2019-06-27T11:59:03.070Z,63.63
2019-06-27T12:00:01.761Z,62.52
2019-06-27T12:01:00.274Z,63.01
2019-06-27T12:01:58.938Z,63.6
2019-06-27T12:02:57.628Z,63.6
2019-06-27T12:03:56.149Z,63.11
2019-06-27T12:04:54.704Z,62.82
2019-06-27T12:05:53.225Z,62.92
2019-06-27T12:06:51.812Z,62.72
2019-06-27T12:07:50.376Z,62.82
2019-06-27T12:08:48.925Z,63.01
2019-06-27T12:09:47.572Z,63.21
2019-06-27T12:10:46.123Z,63.21
2019-06-27T12:11:44.703Z,63.4
2019-06-27T12:12:43.398Z,62.42
2019-06-27T12:13:41.935Z,62.72
2019-06-27T12:14:40.618Z,62.23
2019-06-27T12:15:39.255Z,62.13
2019-06-27T12:16:37.849Z,62.13
2019-06-27T12:17:36.408Z,61.93
2019-06-27T12:18:34.949Z,61.44
2019-06-27T12:19:33.522Z,60.37
2019-06-27T12:20:32.075Z,59.88
2019-06-27T12:21:30.617Z,60.17
2019-06-27T12:22:29.138Z,59.85
2019-06-27T12:23:27.699Z,60.37
2019-06-27T12:24:26.249Z,59.59
2019-06-27T12:25:25.028Z,59.98
2019-06-27T12:26:24.182Z,59.88
2019-06-27T12:27:22.206Z,59.98
2019-06-27T12:28:21.435Z,60.27
2019-06-27T12:29:19.987Z,59.09
2019-06-27T12:30:18.626Z,59
2019-06-27T12:31:20.715Z,59.19
2019-06-27T12:32:15.837Z,59.19
2019-06-27T12:33:14.375Z,58.9
2019-06-27T12:34:13.686Z,58.8
2019-06-27T12:35:11.561Z,58.31
2019-06-27T12:36:10.712Z,58.22
2019-06-27T12:37:09.551Z,58.61
2019-06-27T12:38:08.082Z,57.82
2019-06-27T12:39:07.190Z,58.02
2019-06-27T12:40:05.317Z,57.53
2019-06-27T12:41:03.885Z,57.73
2019-06-27T12:42:02.413Z,57.82
2019-06-27T12:43:01.111Z,57.24
2019-06-27T12:43:59.768Z,56.95
2019-06-27T12:44:58.286Z,57.34
2019-06-27T12:45:56.977Z,56.95
2019-06-27T12:46:55.594Z,57.24
2019-06-27T12:47:54.182Z,56.36
2019-06-27T12:48:52.856Z,56.56
2019-06-27T12:51:01.583Z,56.56
2019-06-27T12:51:59.438Z,55.77
2019-06-27T12:52:58.022Z,55.57
2019-06-27T12:53:56.713Z,56.56
2019-06-27T12:54:55.300Z,56.06
2019-06-27T12:55:53.832Z,56.06
2019-06-27T12:56:53.092Z,54.99
2019-06-27T12:57:51.608Z,55.18
2019-06-27T12:58:49.611Z,54.99
2019-06-27T12:59:49.112Z,55.28
2019-06-27T13:00:46.672Z,55.18
2019-06-27T13:01:45.305Z,55.38
2019-06-27T13:02:43.923Z,55.08
2019-06-27T13:03:42.464Z,55.28
2019-06-27T13:04:41.600Z,54.4
2019-06-27T13:05:40.539Z,54.21
2019-06-27T13:06:39.286Z,54.79
2019-06-27T13:07:37.849Z,54.5
2019-06-27T13:08:36.421Z,55.38
2019-06-27T13:09:35.239Z,55.28
2019-06-27T13:10:35.608Z,55.57
2019-06-27T13:11:32.498Z,55.28
2019-06-27T13:12:31.049Z,55.18
2019-06-27T13:13:30.538Z,54.69
2019-06-27T13:14:28.112Z,54.89
2019-06-27T13:16:45.068Z,53.42
2019-06-27T13:17:43.773Z,54.01